Time;durP1;ratioP1;P1;durP2;ratioP2;P2;SDS_P1;SDS_P2;PMS_P1;PMS_P2;Temp;Humidity;BMP_temperature;BMP_pressure;BME280_temperature;BME280_humidity;BME280_pressure;Samples;Min_cycle;Max_cycle;Signal;HPM_P1;HPM_P2
2023/01/13 00:01:20;;;;;;;10.43;2.25;;;9.80;99.90;;;;;;5080282;28;20050;-94
2023/01/13 00:03:51;;;;;;;12.05;1.88;;;9.80;99.90;;;;;;5069229;28;20421;-94
2023/01/13 00:06:24;;;;;;;11.98;2.22;;;9.70;99.90;;;;;;5068665;28;20086;-94
2023/01/13 00:08:53;;;;;;;15.25;2.80;;;9.70;99.90;;;;;;5084560;28;20591;-93
2023/01/13 00:11:20;;;;;;;13.27;3.88;;;9.70;99.90;;;;;;5065994;28;20402;-94
2023/01/13 00:13:46;;;;;;;13.13;2.58;;;9.70;99.90;;;;;;5066713;28;20413;-95
2023/01/13 00:16:14;;;;;;;13.38;2.42;;;9.60;99.90;;;;;;5066648;28;20181;-94
2023/01/13 00:18:40;;;;;;;14.45;3.33;;;9.50;99.90;;;;;;5081997;28;20111;-94
2023/01/13 00:21:12;;;;;;;12.43;2.83;;;9.50;99.90;;;;;;5084064;28;20027;-95
2023/01/13 00:23:40;;;;;;;12.65;2.40;;;9.40;99.90;;;;;;5070104;28;20031;-94
2023/01/13 00:26:08;;;;;;;14.65;2.55;;;9.40;99.90;;;;;;5068830;28;20036;-94
2023/01/13 00:28:34;;;;;;;15.18;2.40;;;9.30;99.90;;;;;;5085842;28;20032;-94
2023/01/13 00:31:08;;;;;;;13.32;2.13;;;9.30;99.90;;;;;;5074427;28;20035;-94
2023/01/13 00:33:38;;;;;;;17.33;2.78;;;9.20;99.90;;;;;;5076949;28;20050;-93
2023/01/13 00:36:05;;;;;;;18.35;2.85;;;9.20;99.90;;;;;;5077383;28;20054;-94
2023/01/13 00:38:33;;;;;;;22.98;2.97;;;9.10;99.90;;;;;;5077627;28;20043;-94
2023/01/13 00:41:07;;;;;;;21.67;2.45;;;9.10;99.90;;;;;;5079295;28;20093;-94
2023/01/13 00:43:38;;;;;;;11.27;2.63;;;9.10;99.90;;;;;;5109121;28;20077;-94
2023/01/13 00:46:20;;;;;;;16.00;2.55;;;9.10;99.90;;;;;;5084610;27;20093;-95
2023/01/13 00:48:53;;;;;;;13.63;1.83;;;9.00;99.90;;;;;;5109767;28;20130;-95
2023/01/13 00:51:22;;;;;;;13.48;2.15;;;9.00;99.90;;;;;;5083958;28;20035;-94
2023/01/13 00:53:53;;;;;;;19.05;2.67;;;9.00;99.90;;;;;;5082205;28;20048;-93
2023/01/13 00:56:20;;;;;;;11.70;2.75;;;8.90;99.90;;;;;;5083184;28;20120;-95
2023/01/13 00:58:47;;;;;;;13.63;2.60;;;8.90;99.90;;;;;;5081993;28;20039;-94
2023/01/13 01:01:19;;;;;;;14.43;2.92;;;8.90;99.90;;;;;;5079607;28;20405;-94
2023/01/13 01:03:52;;;;;;;13.35;2.40;;;8.90;99.90;;;;;;5062966;28;20069;-95
2023/01/13 01:06:26;;;;;;;14.13;2.55;;;8.90;99.90;;;;;;5064578;28;20036;-95
2023/01/13 01:08:53;;;;;;;17.08;2.17;;;8.80;99.90;;;;;;5099944;28;20043;-95
2023/01/13 01:11:25;;;;;;;18.00;3.40;;;8.90;99.90;;;;;;5082239;28;20168;-94
2023/01/13 01:13:53;;;;;;;11.68;2.40;;;8.90;99.90;;;;;;5082790;28;20039;-95
2023/01/13 01:16:20;;;;;;;12.65;2.35;;;8.80;99.90;;;;;;5100962;28;20050;-94
2023/01/13 01:18:50;;;;;;;18.27;2.58;;;8.80;99.90;;;;;;5083732;28;20051;-94
2023/01/13 01:21:19;;;;;;;12.27;2.25;;;8.80;99.90;;;;;;5090910;28;20489;-94
2023/01/13 01:23:44;;;;;;;20.83;2.80;;;8.80;99.90;;;;;;5083852;27;20032;-94
2023/01/13 01:26:23;;;;;;;15.20;2.42;;;8.80;99.90;;;;;;5076863;28;20032;-95
2023/01/13 01:28:58;;;;;;;8.57;2.95;;;8.80;99.90;;;;;;5084657;28;20075;-95
2023/01/13 01:31:30;;;;;;;15.73;2.45;;;8.90;99.90;;;;;;5082788;28;20041;-95
2023/01/13 01:33:56;;;;;;;13.67;2.90;;;8.90;99.90;;;;;;5083017;28;20051;-95
2023/01/13 01:36:25;;;;;;;18.33;2.95;;;8.90;99.90;;;;;;5100971;27;20861;-94
2023/01/13 01:38:54;;;;;;;12.40;2.83;;;8.90;99.90;;;;;;5074908;28;20089;-95
2023/01/13 01:41:23;;;;;;;15.23;3.10;;;8.90;99.90;;;;;;5082578;28;20047;-94
2023/01/13 01:44:07;;;;;;;13.73;3.08;;;9.00;99.90;;;;;;5099886;28;20455;-95
2023/01/13 01:46:41;;;;;;;15.85;2.75;;;9.00;99.90;;;;;;5083746;28;20044;-95
2023/01/13 01:49:41;;;;;;;14.30;3.20;;;9.00;99.90;;;;;;5100247;28;20050;-94
2023/01/13 01:52:35;;;;;;;15.05;2.60;;;9.00;99.90;;;;;;5082068;28;20554;-95
2023/01/13 01:55:13;;;;;;;15.13;2.90;;;9.00;99.90;;;;;;5080323;28;20039;-95
2023/01/13 01:57:54;;;;;;;17.35;3.05;;;9.00;99.90;;;;;;5080646;28;20540;-95
2023/01/13 02:00:27;;;;;;;18.65;3.03;;;8.90;99.90;;;;;;5079670;28;20044;-95
2023/01/13 02:03:02;;;;;;;13.43;2.83;;;8.90;99.90;;;;;;5079655;28;20036;-96
2023/01/13 02:05:40;;;;;;;13.75;2.60;;;8.80;99.90;;;;;;5080481;28;20032;-95
2023/01/13 02:08:15;;;;;;;16.70;2.55;;;8.80;99.90;;;;;;5079893;28;20036;-95
2023/01/13 02:10:52;;;;;;;15.40;2.28;;;8.70;99.90;;;;;;5080607;28;20075;-96
2023/01/13 02:13:21;;;;;;;19.70;4.00;;;8.70;99.90;;;;;;5096222;28;20042;-95
2023/01/13 02:15:59;;;;;;;12.32;2.95;;;8.60;99.90;;;;;;5080088;28;20047;-93
2023/01/13 02:18:49;;;;;;;18.27;3.28;;;8.60;99.90;;;;;;5096661;28;20035;-95
2023/01/13 02:21:49;;;;;;;19.58;2.88;;;8.60;99.90;;;;;;5093878;28;20101;-95
2023/01/13 02:27:33;;;;;;;14.88;2.40;;;8.50;99.90;;;;;;5076651;28;20044;-96
2023/01/13 02:33:16;;;;;;;19.42;3.60;;;8.50;99.90;;;;;;5089535;28;20120;-94
2023/01/13 02:35:58;;;;;;;13.13;2.45;;;8.50;99.90;;;;;;5079713;28;20097;-95
2023/01/13 02:38:50;;;;;;;23.17;3.63;;;8.50;99.90;;;;;;5070066;28;20040;-95
2023/01/13 02:44:31;;;;;;;16.90;2.80;;;8.50;99.90;;;;;;5095383;28;20408;-95
2023/01/13 02:47:17;;;;;;;18.98;2.67;;;8.50;99.90;;;;;;5079315;28;20043;-95
2023/01/13 02:49:48;;;;;;;21.30;3.35;;;8.40;99.90;;;;;;5079791;28;20062;-95
2023/01/13 02:52:21;;;;;;;20.02;3.78;;;8.40;99.90;;;;;;5094675;28;20054;-95
2023/01/13 02:54:53;;;;;;;17.48;3.40;;;8.40;99.90;;;;;;5078738;28;20035;-96
2023/01/13 02:57:20;;;;;;;20.25;2.90;;;8.40;99.90;;;;;;5094957;28;20039;-96
2023/01/13 02:59:49;;;;;;;16.15;3.08;;;8.40;99.90;;;;;;5079395;28;20047;-95
2023/01/13 03:02:20;;;;;;;13.20;3.47;;;8.40;99.90;;;;;;5093366;28;20123;-96
2023/01/13 03:04:48;;;;;;;17.38;2.72;;;8.40;99.90;;;;;;5070419;28;20036;-94
2023/01/13 03:07:32;;;;;;;21.88;4.25;;;8.40;99.90;;;;;;5079327;28;20047;-95
2023/01/13 03:10:10;;;;;;;19.65;3.45;;;8.40;99.90;;;;;;5109912;28;20043;-95
2023/01/13 03:13:01;;;;;;;16.80;4.93;;;8.40;99.90;;;;;;5095359;28;20036;-96
2023/01/13 03:15:39;;;;;;;16.23;3.22;;;8.40;99.90;;;;;;5083171;28;20082;-95
2023/01/13 03:18:55;;;;;;;18.85;2.88;;;8.40;99.90;;;;;;5079079;28;20074;-95
2023/01/13 03:21:49;;;;;;;16.95;4.22;;;8.30;99.90;;;;;;5030209;28;20109;-95
2023/01/13 03:24:21;;;;;;;29.70;4.38;;;8.40;99.90;;;;;;5066515;28;20051;-95
2023/01/13 03:27:16;;;;;;;24.17;2.95;;;8.40;99.90;;;;;;5067398;28;20110;-93
2023/01/13 03:29:57;;;;;;;20.63;3.85;;;8.50;99.90;;;;;;5079007;28;20057;-95
2023/01/13 03:32:39;;;;;;;12.35;3.15;;;8.50;99.90;;;;;;5094198;28;20074;-95
2023/01/13 03:35:17;;;;;;;23.40;2.88;;;8.50;99.90;;;;;;5095115;28;20669;-95
2023/01/13 03:37:50;;;;;;;20.98;3.17;;;8.50;99.90;;;;;;5078212;28;20520;-95
2023/01/13 03:40:18;;;;;;;;;;;8.50;99.90;;;;;;5076095;28;20043;-95
2023/01/13 03:45:42;;;;;;;12.48;2.60;;;8.60;99.90;;;;;;5101742;28;20047;-95
2023/01/13 03:48:15;;;;;;;22.98;4.40;;;8.50;99.90;;;;;;5058663;28;20124;-95
2023/01/13 03:50:54;;;;;;;16.65;2.50;;;8.60;99.90;;;;;;5074862;28;20079;-95
2023/01/13 03:53:39;;;;;;;16.25;3.50;;;8.60;99.90;;;;;;5083357;28;20504;-94
2023/01/13 03:56:11;;;;;;;16.60;3.13;;;8.70;99.90;;;;;;5077411;28;20504;-95
2023/01/13 03:58:45;;;;;;;20.73;3.60;;;8.60;99.90;;;;;;5067884;28;20046;-95
2023/01/13 04:01:13;;;;;;;15.23;3.17;;;8.60;99.90;;;;;;5077024;28;20050;-95
2023/01/13 04:04:01;;;;;;;19.33;3.17;;;8.60;99.90;;;;;;5077530;28;20447;-95
2023/01/13 04:06:56;;;;;;;20.95;3.75;;;8.60;99.90;;;;;;5071006;28;20035;-96
2023/01/13 04:09:42;;;;;;;23.08;4.53;;;8.60;99.90;;;;;;5077913;28;20045;-94
2023/01/13 04:13:02;;;;;;;17.38;3.40;;;8.50;99.90;;;;;;5060486;28;20067;-95
2023/01/13 04:15:46;;;;;;;20.77;3.85;;;8.60;99.90;;;;;;5056781;28;20054;-95
2023/01/13 04:18:15;;;;;;;17.77;3.03;;;8.50;99.90;;;;;;5107909;28;20202;-95
2023/01/13 04:20:48;;;;;;;27.15;3.78;;;8.50;99.90;;;;;;5056655;28;20047;-95
2023/01/13 04:23:14;;;;;;;14.27;2.42;;;8.50;99.90;;;;;;5061969;28;20078;-94
2023/01/13 04:25:41;;;;;;;21.13;3.00;;;8.50;99.90;;;;;;5060382;28;20036;-95
2023/01/13 04:28:14;;;;;;;23.25;4.43;;;8.50;99.90;;;;;;5073820;28;20051;-95
2023/01/13 04:30:41;;;;;;;19.67;4.10;;;8.50;99.90;;;;;;5071885;28;20138;-95
2023/01/13 04:33:08;;;;;;;12.98;3.63;;;8.50;99.90;;;;;;5077211;28;20617;-94
2023/01/13 04:35:46;;;;;;;20.40;3.55;;;8.50;99.90;;;;;;5094227;28;20104;-95
2023/01/13 04:38:18;;;;;;;15.27;3.78;;;8.40;99.90;;;;;;5076413;28;20112;-95
2023/01/13 04:40:47;;;;;;;12.48;2.20;;;8.40;99.90;;;;;;5091167;28;20036;-96
2023/01/13 04:43:15;;;;;;;18.85;2.65;;;8.50;99.90;;;;;;5056469;28;20036;-95
2023/01/13 04:45:45;;;;;;;20.23;3.35;;;8.50;99.90;;;;;;5057260;28;20051;-95
2023/01/13 04:48:13;;;;;;;15.10;3.53;;;8.50;99.90;;;;;;5069331;28;20111;-95
2023/01/13 04:50:57;;;;;;;18.48;3.67;;;8.50;99.90;;;;;;5094255;28;20603;-95
2023/01/13 04:53:26;;;;;;;18.58;4.38;;;8.50;99.90;;;;;;5076781;28;20040;-95
2023/01/13 04:55:54;;;;;;;16.55;3.75;;;8.50;99.90;;;;;;5075840;28;20048;-95
2023/01/13 04:58:26;;;;;;;23.85;4.80;;;8.60;99.90;;;;;;5077355;28;20032;-94
2023/01/13 05:01:05;;;;;;;18.45;3.42;;;8.50;99.90;;;;;;5096628;28;20064;-95
2023/01/13 05:03:36;;;;;;;19.33;3.15;;;8.50;99.90;;;;;;5110352;28;20040;-94
2023/01/13 05:06:05;;;;;;;16.10;3.22;;;8.50;99.90;;;;;;5110606;28;20070;-95
2023/01/13 05:08:44;;;;;;;18.80;2.67;;;8.50;99.90;;;;;;5094004;28;20039;-95
2023/01/13 05:17:00;;;;;;;26.02;4.50;;;8.50;99.90;;;;;;5093336;28;20058;-94
2023/01/13 05:19:32;;;;;;;11.77;2.45;;;8.50;99.90;;;;;;5075086;28;20070;-95
2023/01/13 05:25:20;;;;;;;15.05;2.58;;;8.40;99.90;;;;;;5110091;28;20036;-94
2023/01/13 05:28:01;;;;;;;17.48;4.05;;;8.30;99.90;;;;;;5068921;28;20040;-95
2023/01/13 05:30:44;;;;;;;16.45;1.75;;;8.40;99.90;;;;;;5061003;28;20032;-94
2023/01/13 05:33:15;;;;;;;19.55;2.55;;;8.40;99.90;;;;;;5059933;28;20047;-96
2023/01/13 05:35:43;;;;;;;14.45;2.72;;;8.30;99.90;;;;;;5060222;28;20050;-95
2023/01/13 05:38:14;;;;;;;17.73;2.90;;;8.30;99.90;;;;;;5060273;28;20040;-95
2023/01/13 05:43:42;;;;;;;16.52;4.15;;;8.40;99.90;;;;;;5076602;28;20044;-95
2023/01/13 05:46:08;;;;;;;11.32;2.70;;;8.40;99.90;;;;;;5079969;28;20040;-94
2023/01/13 05:48:47;;;;;;;15.65;2.72;;;8.30;99.90;;;;;;5097181;28;20035;-95
2023/01/13 05:51:21;;;;;;;18.08;3.33;;;8.40;99.90;;;;;;5097087;28;20131;-95
2023/01/13 05:54:05;;;;;;;12.48;3.33;;;8.40;99.90;;;;;;5080903;28;20044;-95
2023/01/13 05:56:31;;;;;;;13.93;3.15;;;8.40;99.90;;;;;;5080559;28;20386;-95
2023/01/13 05:58:57;;;;;;;11.05;2.28;;;8.40;99.90;;;;;;5096449;28;20049;-95
2023/01/13 06:01:32;;;;;;;17.50;3.17;;;8.40;99.90;;;;;;5079841;28;20435;-95
2023/01/13 06:03:58;;;;;;;;;;;8.40;99.90;;;;;;5090844;28;20562;-94
2023/01/13 06:06:28;;;;;;;14.13;2.67;;;8.40;99.90;;;;;;5113527;28;19915;-95
2023/01/13 06:08:57;;;;;;;14.95;2.47;;;8.40;99.90;;;;;;5088287;28;20036;-95
2023/01/13 06:11:26;;;;;;;14.23;2.63;;;8.40;99.90;;;;;;5077279;28;20078;-95
2023/01/13 06:13:57;;;;;;;15.75;2.45;;;8.30;99.90;;;;;;5076412;28;20072;-94
2023/01/13 06:16:26;;;;;;;8.38;1.42;;;8.30;99.90;;;;;;5077910;28;20039;-95
2023/01/13 06:18:53;;;;;;;9.50;1.50;;;8.40;99.90;;;;;;5096028;28;20419;-94
2023/01/13 06:21:19;;;;;;;9.05;1.90;;;8.40;99.90;;;;;;5094542;28;20031;-94
2023/01/13 06:23:47;;;;;;;9.93;2.03;;;8.40;99.90;;;;;;5077603;28;20100;-94
2023/01/13 06:26:20;;;;;;;13.65;2.08;;;8.40;99.90;;;;;;5078724;28;20035;-95
2023/01/13 06:28:46;;;;;;;12.40;2.30;;;8.40;99.90;;;;;;5104186;28;20096;-94
2023/01/13 06:31:12;;;;;;;8.80;1.52;;;8.30;99.90;;;;;;5074107;28;20048;-95
2023/01/13 06:33:51;;;;;;;11.30;2.22;;;8.40;99.90;;;;;;5059876;28;20032;-95
2023/01/13 06:36:25;;;;;;;8.85;2.13;;;8.30;99.90;;;;;;5095300;28;20910;-95
2023/01/13 06:38:57;;;;;;;7.38;1.67;;;8.30;99.90;;;;;;5095553;28;20050;-95
2023/01/13 06:44:13;;;;;;;8.05;1.33;;;8.40;99.90;;;;;;5090857;28;20040;-95
2023/01/13 06:46:41;;;;;;;17.27;2.22;;;8.40;99.90;;;;;;5078997;28;20043;-94
2023/01/13 06:49:29;;;;;;;9.50;1.90;;;8.40;99.90;;;;;;5083456;28;20043;-95
2023/01/13 06:52:09;;;;;;;;;;;8.40;99.90;;;;;;5096433;28;20130;-94
2023/01/13 06:54:45;;;;;;;6.03;1.63;;;8.40;99.90;;;;;;5094389;28;20036;-94
2023/01/13 06:57:14;;;;;;;17.40;1.90;;;8.40;99.90;;;;;;5058665;28;20048;-95
2023/01/13 06:59:44;;;;;;;9.02;1.85;;;8.40;99.90;;;;;;5064817;28;20477;-94
2023/01/13 07:02:26;;;;;;;7.50;1.25;;;8.40;99.90;;;;;;5108263;28;20098;-94
2023/01/13 07:05:03;;;;;;;9.27;1.60;;;8.40;99.90;;;;;;5111242;28;20051;-94
2023/01/13 07:07:34;;;;;;;12.27;1.60;;;8.40;99.90;;;;;;5098960;28;20483;-94
2023/01/13 07:10:00;;;;;;;13.75;2.15;;;8.40;99.90;;;;;;5095215;28;20511;-94
2023/01/13 07:12:26;;;;;;;10.32;1.75;;;8.40;99.90;;;;;;5112173;28;20035;-94
2023/01/13 07:17:36;;;;;;;8.57;1.48;;;8.40;99.90;;;;;;5094793;28;20075;-93
2023/01/13 07:20:02;;;;;;;6.28;1.67;;;8.40;99.90;;;;;;5073648;28;20075;-94
2023/01/13 07:22:27;;;;;;;6.53;1.10;;;8.40;99.90;;;;;;5093266;28;20036;-95
2023/01/13 07:24:53;;;;;;;9.93;2.20;;;8.40;99.90;;;;;;5076346;28;20036;-95
2023/01/13 07:27:24;;;;;;;9.88;1.73;;;8.40;99.90;;;;;;5073702;28;20491;-94
2023/01/13 07:29:49;;;;;;;7.55;1.85;;;8.40;99.90;;;;;;5077568;28;20436;-94
2023/01/13 07:32:15;;;;;;;11.32;2.00;;;8.40;99.90;;;;;;5090644;28;20035;-93
2023/01/13 07:35:09;;;;;;;15.77;3.83;;;8.40;99.90;;;;;;5076927;28;20123;-93
2023/01/13 07:37:41;;;;;;;8.30;1.42;;;8.50;99.90;;;;;;5078126;28;20445;-93
2023/01/13 07:40:11;;;;;;;15.05;1.83;;;8.50;99.90;;;;;;5073893;28;20052;-94
2023/01/13 07:45:22;;;;;;;13.00;2.25;;;8.50;99.90;;;;;;5073279;28;20113;-94
2023/01/13 07:47:51;;;;;;;15.10;2.22;;;8.50;99.90;;;;;;5073878;28;20490;-95
2023/01/13 07:50:20;;;;;;;15.00;2.05;;;8.50;99.90;;;;;;5064076;28;20039;-95
2023/01/13 07:52:46;;;;;;;14.80;2.03;;;8.50;99.90;;;;;;5076085;28;20488;-94
2023/01/13 07:55:29;;;;;;;10.57;2.00;;;8.50;99.90;;;;;;5093465;28;20059;-94
2023/01/13 07:57:55;;;;;;;9.20;1.73;;;8.50;99.90;;;;;;5076153;28;20043;-94
2023/01/13 08:00:24;;;;;;;12.35;2.22;;;8.40;99.90;;;;;;5093640;28;20066;-95
2023/01/13 08:02:52;;;;;;;8.32;1.60;;;8.40;99.90;;;;;;5092063;28;20054;-94
2023/01/13 08:05:18;;;;;;;13.52;2.17;;;8.40;99.90;;;;;;5080724;28;20031;-94
2023/01/13 08:07:44;;;;;;;14.45;2.42;;;8.30;99.90;;;;;;5076982;28;20416;-94
2023/01/13 08:10:10;;;;;;;11.48;1.98;;;8.40;99.90;;;;;;5076767;28;20043;-94
2023/01/13 08:15:22;;;;;;;13.35;2.20;;;8.30;99.90;;;;;;5092877;28;20043;-94
2023/01/13 08:17:48;;;;;;;12.75;1.73;;;8.30;99.90;;;;;;5085335;28;20481;-94
2023/01/13 08:20:13;;;;;;;13.40;2.03;;;8.30;99.90;;;;;;5076587;28;20493;-94
2023/01/13 08:22:39;;;;;;;10.38;1.88;;;8.20;99.90;;;;;;5066391;28;20039;-94
2023/01/13 08:25:05;;;;;;;12.10;2.70;;;8.30;99.90;;;;;;5075929;28;20475;-93
2023/01/13 08:27:39;;;;;;;9.07;1.90;;;8.30;99.90;;;;;;5064786;28;20166;-94
2023/01/13 08:30:08;;;;;;;7.53;1.63;;;8.20;99.90;;;;;;5072884;28;20421;-95
2023/01/13 08:32:36;;;;;;;10.63;2.00;;;8.30;99.90;;;;;;5072252;28;20047;-95
2023/01/13 08:35:02;;;;;;;20.80;2.65;;;8.20;99.90;;;;;;5090567;28;20047;-95
2023/01/13 08:37:30;;;;;;;9.43;1.60;;;8.20;99.90;;;;;;5075894;28;20040;-94
2023/01/13 08:40:08;;;;;;;13.38;2.42;;;8.10;99.90;;;;;;5076091;28;20035;-94
2023/01/13 08:42:42;;;;;;;9.40;1.60;;;8.10;99.90;;;;;;5091794;28;20062;-94
2023/01/13 08:45:12;;;;;;;8.40;1.95;;;8.10;99.90;;;;;;5075593;28;20557;-96
2023/01/13 08:47:46;;;;;;;11.98;2.30;;;8.00;99.90;;;;;;5093187;28;20036;-94
2023/01/13 08:50:21;;;;;;;9.25;2.35;;;8.00;99.90;;;;;;5092740;28;20132;-95
2023/01/13 08:52:47;;;;;;;12.25;1.55;;;8.00;99.90;;;;;;5077532;28;20071;-94
2023/01/13 08:55:13;;;;;;;9.65;2.10;;;8.00;99.90;;;;;;5085587;28;20124;-94
2023/01/13 08:57:39;;;;;;;8.88;1.75;;;8.00;99.90;;;;;;5076671;28;20604;-94
2023/01/13 09:00:06;;;;;;;12.45;2.25;;;8.00;99.90;;;;;;5067668;28;20039;-94
2023/01/13 09:02:33;;;;;;;8.25;1.65;;;8.00;99.90;;;;;;5063982;28;20047;-94
2023/01/13 09:05:03;;;;;;;9.57;2.15;;;8.00;99.90;;;;;;5070354;28;20032;-95
2023/01/13 09:07:34;;;;;;;12.00;2.45;;;8.00;99.90;;;;;;5102776;28;20113;-94
2023/01/13 09:10:02;;;;;;;10.43;1.85;;;8.00;99.90;;;;;;5060156;28;20048;-94
2023/01/13 09:15:17;;;;;;;10.88;1.38;;;8.00;99.90;;;;;;5113815;28;20131;-95
2023/01/13 09:18:05;;;;;;;12.13;2.30;;;8.00;99.90;;;;;;5085795;28;20535;-95
2023/01/13 09:20:48;;;;;;;8.88;1.35;;;8.10;99.90;;;;;;5079653;28;20047;-94
2023/01/13 09:23:31;;;;;;;9.75;1.55;;;8.00;99.90;;;;;;5078319;28;20039;-94
2023/01/13 09:26:31;;;;;;;14.07;2.05;;;8.10;99.90;;;;;;5060685;28;20043;-95
2023/01/13 09:29:00;;;;;;;7.90;1.35;;;8.00;99.90;;;;;;5064833;28;20043;-94
2023/01/13 09:31:27;;;;;;;11.73;2.55;;;8.00;99.90;;;;;;5077746;28;20047;-94
2023/01/13 09:36:44;;;;;;;14.32;1.67;;;8.10;99.90;;;;;;5090378;28;20047;-94
2023/01/13 09:39:17;;;;;;;13.02;1.60;;;8.10;99.90;;;;;;5079683;28;20103;-94
2023/01/13 09:45:05;;;;;;;9.90;2.05;;;8.10;99.90;;;;;;5095741;28;20090;-94
2023/01/13 09:47:50;;;;;;;9.68;1.80;;;8.20;99.90;;;;;;5070688;28;20412;-94
2023/01/13 09:50:33;;;;;;;13.45;2.20;;;8.20;99.90;;;;;;5079695;28;20561;-95
2023/01/13 09:52:59;;;;;;;11.38;1.85;;;8.30;99.90;;;;;;5076746;28;20039;-94
2023/01/13 09:55:35;;;;;;;13.60;1.85;;;8.30;99.90;;;;;;5096250;28;20046;-93
2023/01/13 09:58:23;;;;;;;11.85;2.28;;;8.30;99.90;;;;;;5079476;28;20031;-94
2023/01/13 10:01:25;;;;;;;12.13;1.70;;;8.30;99.90;;;;;;5059679;28;20123;-94
2023/01/13 10:04:13;;;;;;;;;;;;;;;;;;;;;
2023/01/13 10:06:48;;;;;;;7.13;1.67;;;8.30;99.90;;;;;;5028583;28;20055;-94
2023/01/13 10:09:25;;;;;;;8.90;1.48;;;8.30;99.90;;;;;;5043096;28;20083;-95
2023/01/13 10:14:51;;;;;;;16.15;2.55;;;8.40;99.90;;;;;;5034518;28;20041;-95
2023/01/13 10:17:43;;;;;;;17.38;2.58;;;8.30;99.90;;;;;;5056800;28;20059;-94
2023/01/13 10:20:21;;;;;;;11.77;2.15;;;8.30;99.90;;;;;;5074843;28;20040;-96
2023/01/13 10:23:32;;;;;;;12.25;2.22;;;8.30;99.90;;;;;;5033128;28;20107;-95
2023/01/13 10:26:27;;;;;;;13.35;2.13;;;8.30;99.90;;;;;;5017280;28;20049;-94
2023/01/13 10:28:54;;;;;;;9.95;2.08;;;8.30;99.90;;;;;;5039204;28;20045;-94
2023/01/13 10:31:22;;;;;;;11.27;2.03;;;8.20;99.90;;;;;;5025734;28;20068;-94
2023/01/13 10:33:48;;;;;;;6.97;1.60;;;8.20;99.90;;;;;;5043984;28;20029;-94
2023/01/13 10:36:27;;;;;;;15.18;1.88;;;8.20;99.90;;;;;;5030917;28;20037;-94
2023/01/13 10:39:06;;;;;;;8.35;1.83;;;8.20;99.90;;;;;;5087641;28;20036;-94
2023/01/13 10:41:35;;;;;;;9.60;1.80;;;8.20;99.90;;;;;;5065033;28;20081;-93
2023/01/13 10:44:14;;;;;;;15.32;2.67;;;8.20;99.90;;;;;;5068489;28;20031;-94
2023/01/13 10:46:59;;;;;;;13.10;3.42;;;8.20;99.90;;;;;;5068551;28;20036;-94
2023/01/13 10:49:31;;;;;;;8.75;2.28;;;8.30;99.90;;;;;;5069180;28;20039;-94
2023/01/13 10:52:00;;;;;;;8.75;1.67;;;8.30;99.90;;;;;;5065225;28;20036;-94
2023/01/13 10:54:30;;;;;;;13.50;2.53;;;8.20;99.90;;;;;;5069187;28;20050;-94
2023/01/13 10:57:26;;;;;;;6.40;1.80;;;8.20;99.90;;;;;;5066722;28;20043;-95
2023/01/13 10:59:55;;;;;;;11.00;1.67;;;8.30;99.90;;;;;;5088317;28;20040;-94
2023/01/13 11:02:28;;;;;;;16.20;3.13;;;8.30;99.90;;;;;;5064201;28;20039;-93
2023/01/13 11:05:01;;;;;;;;;;;8.30;99.90;;;;;;5065341;28;20187;-94
2023/01/13 11:07:50;;;;;;;6.22;1.75;;;8.20;99.90;;;;;;5084991;28;20456;-94
2023/01/13 11:10:29;;;;;;;10.88;2.22;;;8.30;99.90;;;;;;5068795;28;20043;-94
2023/01/13 11:13:30;;;;;;;17.58;2.22;;;8.30;99.90;;;;;;5068199;28;20401;-94
2023/01/13 11:16:38;;;;;;;8.68;2.20;;;8.30;99.90;;;;;;4974941;28;20057;-94
2023/01/13 11:19:12;;;;;;;9.48;2.53;;;8.30;99.90;;;;;;4916949;29;20055;-91
2023/01/13 11:21:53;;;;;;;17.13;3.97;;;8.30;99.90;;;;;;4900276;29;20521;-91
2023/01/13 11:24:35;;;;;;;12.13;3.33;;;8.30;99.90;;;;;;4915765;29;20490;-91
2023/01/13 11:27:25;;;;;;;8.27;2.08;;;8.30;99.90;;;;;;4915675;29;20060;-92
2023/01/13 11:30:16;;;;;;;10.43;1.85;;;8.30;99.90;;;;;;4916819;29;20183;-92
2023/01/13 11:33:03;;;;;;;7.38;1.58;;;8.30;99.90;;;;;;4916183;29;20122;-91
2023/01/13 11:35:33;;;;;;;12.77;2.35;;;8.30;99.90;;;;;;4915825;29;20039;-92
2023/01/13 11:38:11;;;;;;;13.00;1.98;;;8.30;99.90;;;;;;4916153;29;20226;-92
2023/01/13 11:40:44;;;;;;;12.38;2.15;;;8.30;99.90;;;;;;4915320;29;20048;-92
2023/01/13 11:43:17;;;;;;;;;;;8.30;99.90;;;;;;4899662;29;20044;-92
2023/01/13 11:45:48;;;;;;;8.95;1.85;;;8.30;99.90;;;;;;4899533;29;19925;-92
2023/01/13 11:48:19;;;;;;;11.05;2.60;;;8.40;99.90;;;;;;4916224;29;20078;-92
2023/01/13 11:51:07;;;;;;;13.00;2.55;;;8.40;99.90;;;;;;4916622;29;20114;-92
2023/01/13 11:54:30;;;;;;;11.05;2.17;;;8.30;99.90;;;;;;5031943;28;20083;-92
2023/01/13 11:57:12;;;;;;;8.27;1.85;;;8.40;99.90;;;;;;4976879;28;20053;-93
2023/01/13 11:59:57;;;;;;;14.95;2.67;;;8.30;99.90;;;;;;4976338;28;20054;-91
2023/01/13 12:02:42;;;;;;;12.50;1.98;;;8.30;99.90;;;;;;5047828;28;20089;-91
2023/01/13 12:05:22;;;;;;;6.60;2.28;;;8.30;99.90;;;;;;5068562;28;20088;-92
2023/01/13 12:08:17;;;;;;;14.80;2.38;;;8.30;99.90;;;;;;5057243;28;20502;-92
2023/01/13 12:11:05;;;;;;;10.07;2.35;;;8.40;99.90;;;;;;5062694;28;20085;-91
2023/01/13 12:13:55;;;;;;;8.57;1.95;;;8.50;99.90;;;;;;5073400;28;20055;-92
2023/01/13 12:16:27;;;;;;;15.93;2.55;;;8.50;99.90;;;;;;5057122;28;20079;-92
2023/01/13 12:18:58;;;;;;;11.85;1.80;;;8.60;99.90;;;;;;5088256;28;20416;-91
2023/01/13 12:21:28;;;;;;;18.38;2.70;;;8.50;99.90;;;;;;5093212;28;20046;-92
2023/01/13 12:24:02;;;;;;;18.63;2.70;;;8.60;99.90;;;;;;5093056;28;20039;-92
2023/01/13 12:26:43;;;;;;;14.88;2.50;;;8.50;99.90;;;;;;5076521;28;20058;-92
2023/01/13 12:29:25;;;;;;;10.45;2.08;;;8.60;99.90;;;;;;5074485;28;20052;-91
2023/01/13 12:31:59;;;;;;;14.73;1.98;;;8.60;99.90;;;;;;5083696;28;20075;-92
2023/01/13 12:34:52;;;;;;;19.92;3.70;;;8.50;99.90;;;;;;5092215;28;20043;-91
2023/01/13 12:37:58;;;;;;;12.35;1.65;;;8.50;99.90;;;;;;5071010;28;20134;-92
2023/01/13 12:40:50;;;;;;;13.77;1.85;;;8.60;99.90;;;;;;4977177;28;20048;-91
2023/01/13 12:46:17;;;;;;;13.68;2.15;;;8.60;99.90;;;;;;4975927;28;20042;-91
2023/01/13 12:49:01;;;;;;;13.60;1.85;;;8.50;99.90;;;;;;4964212;28;20120;-91
2023/01/13 12:51:36;;;;;;;8.90;1.88;;;8.50;99.90;;;;;;4969031;28;20113;-92
2023/01/13 12:54:31;;;;;;;15.23;2.40;;;8.50;99.90;;;;;;4966618;28;20566;-91
2023/01/13 12:57:00;;;;;;;7.47;1.85;;;8.50;99.90;;;;;;4967178;28;20499;-92
2023/01/13 12:59:29;;;;;;;10.50;1.83;;;8.50;99.90;;;;;;4967745;28;20043;-92
2023/01/13 13:02:10;;;;;;;8.07;1.65;;;8.50;99.90;;;;;;4980151;28;20512;-91
2023/01/13 13:04:51;;;;;;;7.68;1.65;;;8.50;99.90;;;;;;4984966;28;20046;-92
2023/01/13 13:08:15;;;;;;;11.98;1.67;;;8.50;99.90;;;;;;4966808;28;20412;-92
2023/01/13 13:11:00;;;;;;;10.35;1.60;;;8.50;99.90;;;;;;4970348;28;20048;-91
2023/01/13 13:13:43;;;;;;;13.80;2.13;;;8.50;99.90;;;;;;5058038;28;20607;-91
2023/01/13 13:16:32;;;;;;;8.38;1.45;;;8.50;99.90;;;;;;5076331;28;20043;-91
2023/01/13 13:19:17;;;;;;;7.55;1.73;;;8.50;99.90;;;;;;5093128;28;20043;-91
2023/01/13 13:22:13;;;;;;;7.80;1.02;;;8.50;99.90;;;;;;5060429;28;20409;-92
2023/01/13 13:24:50;;;;;;;8.80;1.98;;;8.50;99.90;;;;;;5072263;28;20132;-92
2023/01/13 13:27:40;;;;;;;10.63;1.50;;;8.50;99.90;;;;;;5056612;28;20042;-91
2023/01/13 13:30:45;;;;;;;10.73;1.95;;;8.60;99.90;;;;;;5074833;28;20421;-92
2023/01/13 13:33:59;;;;;;;7.35;1.55;;;8.60;99.90;;;;;;5070762;28;20035;-91
2023/01/13 13:37:17;;;;;;;12.88;2.20;;;8.70;99.90;;;;;;5039763;28;20058;-91
2023/01/13 13:48:41;;;;;;;7.45;1.17;;;8.80;99.90;;;;;;5093071;28;20044;-92
2023/01/13 13:51:28;;;;;;;4.88;1.02;;;8.70;99.90;;;;;;5080013;28;20481;-91
2023/01/13 13:54:01;;;;;;;9.07;1.40;;;8.70;99.90;;;;;;5077751;28;20047;-92
2023/01/13 13:56:33;;;;;;;6.15;1.77;;;8.70;99.90;;;;;;5077674;28;20043;-92
2023/01/13 13:59:22;;;;;;;7.93;1.45;;;8.70;99.90;;;;;;5094249;28;20039;-92
2023/01/13 14:02:02;;;;;;;5.40;1.23;;;8.70;99.90;;;;;;5077372;28;20554;-90
2023/01/13 14:04:39;;;;;;;5.20;1.17;;;8.70;99.90;;;;;;5095430;28;20042;-91
2023/01/13 14:07:27;;;;;;;4.47;1.15;;;8.80;99.90;;;;;;5058610;28;20553;-92
2023/01/13 14:09:59;;;;;;;7.15;1.42;;;8.90;99.90;;;;;;5058482;28;20052;-92
2023/01/13 14:12:36;;;;;;;7.55;1.23;;;8.90;99.90;;;;;;5059017;28;20122;-94
2023/01/13 14:15:02;;;;;;;10.45;1.65;;;8.90;99.90;;;;;;5075333;28;20152;-94
2023/01/13 14:17:32;;;;;;;9.38;1.75;;;8.90;99.90;;;;;;5086725;28;20104;-94
2023/01/13 14:20:16;;;;;;;5.97;1.08;;;8.90;99.90;;;;;;5079110;28;20132;-93
2023/01/13 14:26:25;;;;;;;12.75;1.80;;;8.80;99.90;;;;;;5052613;28;20500;-94
2023/01/13 14:29:03;;;;;;;8.30;1.38;;;8.70;99.90;;;;;;5078649;28;20419;-94
2023/01/13 14:32:08;;;;;;;14.43;2.50;;;8.70;99.90;;;;;;5082104;28;20065;-95
2023/01/13 14:35:21;;;;;;;5.22;1.13;;;8.70;99.90;;;;;;5079338;28;20512;-95
2023/01/13 14:38:25;;;;;;;6.75;1.25;;;8.80;99.90;;;;;;4954710;28;20130;-94
2023/01/13 14:41:22;;;;;;;9.85;1.15;;;8.80;99.90;;;;;;5017838;28;20127;-94
2023/01/13 14:44:11;;;;;;;9.40;1.17;;;8.80;99.90;;;;;;5022704;28;20037;-94